Погода Итажубана неделю

Минас-Жерайс, Бразилия

16 - 22 июня
  • 16июня
    Сегодня
    +10°
    +25°
    Ясно и безоблачно
    ВремяПогодаТемператураВлажностьДавлениеВетер, м/сВероятность осадков
    00:00Ясно и безоблачно+12°C82 %689 мм1.2 м/с5 %
    03:00Ясно и безоблачно+12°C79 %689 мм1.3 м/с5 %
    06:00Ясно и безоблачно+10°C79 %688 мм1.3 м/с5 %
    09:00Ясно и безоблачно+16°C60 %690 мм0.1 м/с5 %
    12:00Ясно и безоблачно+22°C45 %690 мм1.1 м/с5 %
    15:00Ясно и безоблачно+24°C42 %689 мм1.1 м/с5 %
    18:00Ясно и безоблачно+18°C62 %688 мм0.3 м/с5 %
    21:00Ясно и безоблачно+15°C73 %688 мм1.0 м/с5 %
  • 17июня
    Понедельник
    +10°
    +25°
    Ясно и безоблачно
    ВремяПогодаТемператураВлажностьДавлениеВетер, м/сВероятность осадков
    00:00Ясно и безоблачно+13°C75 %688 мм1.1 м/с5 %
    03:00Ясно и безоблачно+13°C77 %687 мм1.1 м/с5 %
    06:00Ясно и безоблачно+11°C81 %686 мм1.0 м/с5 %
    09:00Ясно и безоблачно+16°C63 %688 мм0.3 м/с5 %
    12:00Ясно и безоблачно+22°C49 %689 мм1.4 м/с5 %
    15:00Ясно и безоблачно+25°C45 %687 мм1.3 м/с5 %
    18:00Ясно и безоблачно+19°C64 %687 мм0.3 м/с5 %
    21:00Ясно и безоблачно+15°C77 %687 мм1.5 м/с5 %
  • 18июня
    Вторник
    +11°
    +25°
    Практически безоблачно
    ВремяПогодаТемператураВлажностьДавлениеВетер, м/сВероятность осадков
    00:00Ясно и безоблачно+12°C79 %686 мм1.2 м/с5 %
    03:00Ясно и безоблачно+12°C80 %686 мм1.0 м/с5 %
    06:00Ясно и безоблачно+11°C79 %686 мм0.8 м/с5 %
    09:00Ясно и безоблачно+15°C63 %688 мм0.3 м/с5 %
    12:00Ясно и безоблачно+22°C49 %689 мм2.3 м/с5 %
    15:00Практически безоблачно+24°C45 %687 мм2.1 м/с5 %
    18:00Небольшая облачность+19°C61 %687 мм0.6 м/с5 %
    21:00Небольшая облачность+14°C78 %687 мм1.5 м/с5 %
  • 19июня
    Среда
    +11°
    +26°
    Ясно и безоблачно
    ВремяПогодаТемператураВлажностьДавлениеВетер, м/сВероятность осадков
    00:00Небольшая облачность+12°C78 %687 мм1.3 м/с5 %
    03:00Облачно с прояснениями+12°C77 %686 мм1.2 м/с5 %
    06:00Ясно и безоблачно+12°C77 %687 мм1.1 м/с5 %
    09:00Ясно и безоблачно+17°C58 %689 мм0.3 м/с5 %
    12:00Ясно и безоблачно+23°C44 %690 мм2.3 м/с5 %
    15:00Ясно и безоблачно+25°C43 %688 мм1.9 м/с5 %
    18:00Ясно и безоблачно+20°C59 %688 мм0.3 м/с5 %
    21:00Ясно и безоблачно+15°C76 %688 мм1.4 м/с5 %
Мы используем cookies
Соглашаюсь